Time;durP1;ratioP1;P1;durP2;ratioP2;P2;SDS_P1;SDS_P2;PMS_P1;PMS_P2;Temp;Humidity;BMP_temperature;BMP_pressure;BME280_temperature;BME280_humidity;BME280_pressure;Samples;Min_cycle;Max_cycle;Signal;HPM_P1;HPM_P2
2024/03/18 00:00:36;;;;;;;40.15;26.95;;;9.60;99.00;;;;;;4973825;28;20511;-70
2024/03/18 00:03:21;;;;;;;24.48;17.30;;;9.80;98.60;;;;;;4955036;28;20042;-71
2024/03/18 00:05:48;;;;;;;22.58;14.30;;;9.70;98.40;;;;;;4977627;28;20048;-69
2024/03/18 00:08:15;;;;;;;20.73;13.55;;;9.60;98.40;;;;;;4967344;28;20046;-70
2024/03/18 00:10:43;;;;;;;20.00;13.48;;;9.60;98.50;;;;;;4968472;28;20512;-67
2024/03/18 00:13:09;;;;;;;19.25;12.82;;;9.60;98.90;;;;;;4969094;28;20119;-71
2024/03/18 00:15:35;;;;;;;21.42;12.68;;;9.60;98.50;;;;;;4970410;28;20041;-70
2024/03/18 00:18:04;;;;;;;21.27;11.70;;;9.40;98.60;;;;;;4977566;28;20491;-70
2024/03/18 00:20:30;;;;;;;11.35;9.35;;;9.60;98.70;;;;;;4960880;28;20424;-69
2024/03/18 00:22:57;;;;;;;11.80;8.85;;;9.60;98.50;;;;;;4971113;28;20042;-68
2024/03/18 00:25:23;;;;;;;14.45;9.18;;;9.60;97.90;;;;;;4983089;28;20046;-68
2024/03/18 00:27:49;;;;;;;13.10;8.70;;;9.60;97.60;;;;;;4972349;28;20070;-68
2024/03/18 00:30:16;;;;;;;12.25;8.57;;;9.20;98.00;;;;;;4971822;28;20039;-70
2024/03/18 00:32:43;;;;;;;11.82;8.77;;;9.20;97.90;;;;;;4965017;28;20045;-69
2024/03/18 00:35:09;;;;;;;11.80;8.65;;;9.00;98.40;;;;;;4970966;28;20042;-68
2024/03/18 00:37:37;;;;;;;10.77;8.07;;;8.80;98.50;;;;;;4969661;28;20029;-70
2024/03/18 00:40:03;;;;;;;11.45;8.82;;;8.80;99.10;;;;;;4972336;28;20043;-69
2024/03/18 00:42:30;;;;;;;11.57;9.38;;;8.50;99.50;;;;;;4971314;28;20030;-69
2024/03/18 00:44:56;;;;;;;11.57;9.32;;;8.50;99.70;;;;;;4971280;28;20042;-71
2024/03/18 00:47:23;;;;;;;11.07;8.85;;;8.40;99.90;;;;;;4968028;28;20079;-71
2024/03/18 00:49:49;;;;;;;11.30;8.60;;;8.40;99.90;;;;;;4962163;28;20058;-70
2024/03/18 00:52:16;;;;;;;14.73;9.43;;;8.60;99.90;;;;;;4974044;28;20045;-69
2024/03/18 00:54:42;;;;;;;11.55;8.85;;;8.70;99.90;;;;;;4978538;28;20042;-69
2024/03/18 00:57:08;;;;;;;13.05;9.35;;;8.90;99.70;;;;;;4979014;28;20473;-69
2024/03/18 00:59:34;;;;;;;13.63;9.27;;;9.00;99.40;;;;;;4986101;28;20030;-69
2024/03/18 01:02:01;;;;;;;10.93;8.95;;;9.10;99.10;;;;;;4980401;28;20034;-69
2024/03/18 01:04:28;;;;;;;11.10;8.93;;;9.20;98.90;;;;;;4986275;28;20377;-69
2024/03/18 01:06:54;;;;;;;9.93;8.32;;;9.20;98.50;;;;;;4971202;28;20044;-71
2024/03/18 01:09:20;;;;;;;11.98;8.77;;;9.00;98.50;;;;;;4974102;28;20047;-68
2024/03/18 01:11:47;;;;;;;12.25;8.70;;;8.90;98.90;;;;;;4978774;28;20026;-69
2024/03/18 01:14:13;;;;;;;11.93;8.75;;;9.00;98.80;;;;;;4974357;28;20038;-69
2024/03/18 01:16:41;;;;;;;14.38;8.70;;;9.00;98.50;;;;;;4974256;28;20026;-69
2024/03/18 01:19:07;;;;;;;13.63;8.60;;;9.10;98.40;;;;;;4984011;28;20358;-69
2024/03/18 01:21:33;;;;;;;12.23;8.80;;;9.00;98.40;;;;;;4986288;28;20061;-69
2024/03/18 01:23:59;;;;;;;11.40;9.15;;;8.90;98.30;;;;;;4993333;28;20471;-70
2024/03/18 01:26:27;;;;;;;10.65;8.85;;;8.90;98.70;;;;;;4982485;28;20038;-71
2024/03/18 01:28:53;;;;;;;13.27;9.30;;;8.80;98.70;;;;;;4977278;28;20099;-68
2024/03/18 01:31:21;;;;;;;12.73;9.93;;;8.70;98.80;;;;;;4979794;28;20022;-69
2024/03/18 01:33:47;;;;;;;13.23;9.88;;;8.70;99.10;;;;;;4980901;28;20542;-72
2024/03/18 01:36:14;;;;;;;14.25;10.27;;;8.80;99.10;;;;;;4971444;28;20034;-69
2024/03/18 01:38:40;;;;;;;19.70;12.50;;;8.90;98.90;;;;;;4976627;28;20381;-68
2024/03/18 01:41:06;;;;;;;18.10;12.82;;;8.70;99.00;;;;;;4986666;28;20042;-70
2024/03/18 01:43:37;;;;;;;17.35;12.25;;;8.60;98.90;;;;;;4973785;28;20038;-70
2024/03/18 01:46:16;;;;;;;21.25;12.75;;;8.50;98.90;;;;;;4974659;28;20037;-68
2024/03/18 01:48:44;;;;;;;18.40;13.45;;;8.50;99.10;;;;;;4974896;28;20038;-69
2024/03/18 01:51:11;;;;;;;21.38;13.05;;;8.40;99.00;;;;;;4971459;28;20447;-69
2024/03/18 01:53:38;;;;;;;21.23;13.80;;;8.40;99.00;;;;;;4978630;28;20038;-68
2024/03/18 01:56:11;;;;;;;21.83;12.95;;;8.40;99.20;;;;;;4983701;28;20077;-69
2024/03/18 01:58:38;;;;;;;19.55;12.02;;;8.40;99.20;;;;;;4970789;28;20144;-67
2024/03/18 02:01:06;;;;;;;15.18;11.75;;;8.40;99.20;;;;;;4975149;28;20037;-69
2024/03/18 02:03:32;;;;;;;19.33;12.13;;;8.40;99.20;;;;;;4975977;28;20053;-68
2024/03/18 02:06:00;;;;;;;19.23;12.30;;;8.30;99.40;;;;;;4976064;28;20079;-68
2024/03/18 02:08:27;;;;;;;19.58;12.60;;;8.40;99.90;;;;;;4980632;28;20038;-69
2024/03/18 02:10:53;;;;;;;18.45;12.50;;;8.50;99.40;;;;;;4973560;28;20030;-69
2024/03/18 02:13:19;;;;;;;21.20;12.52;;;8.40;99.10;;;;;;4972340;28;20042;-69
2024/03/18 02:15:45;;;;;;;19.80;12.63;;;8.40;98.90;;;;;;4972682;28;20037;-67
2024/03/18 02:18:12;;;;;;;19.95;12.80;;;8.40;99.20;;;;;;4972620;28;20035;-68
2024/03/18 02:20:38;;;;;;;18.88;12.40;;;8.40;98.80;;;;;;4978400;28;20041;-69
2024/03/18 02:23:04;;;;;;;19.25;12.43;;;8.50;98.90;;;;;;4972233;28;20034;-68
2024/03/18 02:25:30;;;;;;;15.20;11.43;;;8.10;98.80;;;;;;4968002;28;20446;-68
2024/03/18 02:27:57;;;;;;;15.68;12.15;;;7.80;99.50;;;;;;4982763;28;20037;-69
2024/03/18 02:30:24;;;;;;;17.75;12.55;;;7.90;99.90;;;;;;4972740;28;20088;-70
2024/03/18 02:32:51;;;;;;;21.55;14.40;;;8.10;99.60;;;;;;4976387;28;20381;-68
2024/03/18 02:35:17;;;;;;;18.70;12.80;;;8.20;99.00;;;;;;4977680;28;20042;-69
2024/03/18 02:37:48;;;;;;;19.50;11.93;;;8.10;98.80;;;;;;4985053;28;20030;-68
2024/03/18 02:40:14;;;;;;;;;;;8.00;98.80;;;;;;4979066;28;20424;-68
2024/03/18 02:42:41;;;;;;;13.63;10.45;;;8.10;98.70;;;;;;4977847;28;19918;-69
2024/03/18 02:45:09;;;;;;;17.55;10.88;;;8.00;98.50;;;;;;4989238;28;20049;-68
2024/03/18 02:47:40;;;;;;;15.95;10.35;;;8.00;98.50;;;;;;4971750;28;21663;-67
2024/03/18 02:50:07;;;;;;;15.30;10.68;;;7.90;98.70;;;;;;4975530;28;20049;-69
2024/03/18 02:52:35;;;;;;;18.63;12.35;;;7.90;98.70;;;;;;4923360;28;1441654;-69
2024/03/18 02:55:02;;;;;;;17.48;12.05;;;7.80;98.80;;;;;;4982936;28;20037;-68
2024/03/18 02:57:28;;;;;;;15.73;11.13;;;7.80;98.90;;;;;;4976943;28;20038;-69
2024/03/18 02:59:54;;;;;;;14.98;11.02;;;7.60;99.10;;;;;;4977944;28;20038;-69
2024/03/18 03:02:21;;;;;;;15.77;11.15;;;7.50;99.40;;;;;;4978256;28;20030;-69
2024/03/18 03:04:47;;;;;;;16.50;11.32;;;7.70;99.70;;;;;;4972876;28;20045;-69
2024/03/18 03:07:14;;;;;;;17.23;11.40;;;7.70;99.70;;;;;;4972678;28;20048;-67
2024/03/18 03:09:40;;;;;;;17.35;11.32;;;7.70;99.30;;;;;;4972657;28;20046;-68
2024/03/18 03:12:09;;;;;;;16.00;11.15;;;7.70;99.50;;;;;;4972488;28;20035;-69
2024/03/18 03:14:35;;;;;;;15.10;11.25;;;7.60;99.90;;;;;;4972997;28;20477;-70
2024/03/18 03:17:01;;;;;;;16.48;10.73;;;7.70;99.50;;;;;;4956495;28;20481;-68
2024/03/18 03:19:27;;;;;;;13.27;10.65;;;7.80;99.70;;;;;;4957988;28;20034;-68
2024/03/18 03:21:54;;;;;;;14.05;11.07;;;7.70;99.50;;;;;;4972781;28;20044;-68
2024/03/18 03:24:38;;;;;;;17.67;11.20;;;7.70;99.30;;;;;;4989613;28;20018;-69
2024/03/18 03:27:05;;;;;;;17.38;10.85;;;7.70;99.50;;;;;;4972609;28;20038;-67
2024/03/18 03:29:31;;;;;;;16.02;12.15;;;7.70;99.60;;;;;;4956137;28;20389;-68
2024/03/18 03:31:57;;;;;;;16.25;11.85;;;7.70;99.60;;;;;;4984483;28;20034;-68
2024/03/18 03:34:23;;;;;;;18.23;12.82;;;7.70;99.60;;;;;;4980240;28;20043;-68
2024/03/18 03:36:50;;;;;;;20.15;12.85;;;7.70;99.60;;;;;;4979546;28;20046;-68
2024/03/18 03:39:16;;;;;;;18.35;12.88;;;7.50;99.60;;;;;;4972421;28;20443;-69
2024/03/18 03:41:43;;;;;;;18.40;12.40;;;7.60;99.90;;;;;;4972059;28;20027;-68
2024/03/18 03:44:09;;;;;;;19.75;13.35;;;7.40;99.90;;;;;;4984747;28;20087;-68
2024/03/18 03:46:35;;;;;;;17.65;13.20;;;7.40;99.90;;;;;;4974500;28;20030;-68
2024/03/18 03:49:03;;;;;;;18.13;13.23;;;7.50;99.90;;;;;;4991001;28;20040;-69
2024/03/18 03:51:30;;;;;;;18.20;12.70;;;7.50;99.90;;;;;;4972029;28;20038;-69
2024/03/18 03:53:57;;;;;;;18.13;12.38;;;7.60;99.90;;;;;;4972083;28;20420;-68
2024/03/18 03:56:24;;;;;;;19.25;12.90;;;7.70;99.90;;;;;;4971897;28;20037;-68
2024/03/18 03:58:52;;;;;;;19.17;13.00;;;7.50;99.90;;;;;;4971772;28;20427;-68
2024/03/18 04:01:19;;;;;;;21.75;14.60;;;7.50;99.90;;;;;;4964228;28;20034;-69
2024/03/18 04:03:45;;;;;;;21.15;14.45;;;7.50;99.90;;;;;;4978785;28;20393;-67
2024/03/18 04:06:12;;;;;;;19.10;13.65;;;7.60;99.90;;;;;;4974670;28;20030;-70
2024/03/18 04:08:38;;;;;;;16.70;13.10;;;7.50;99.90;;;;;;4975616;28;20042;-69
2024/03/18 04:11:04;;;;;;;16.50;12.80;;;7.50;99.90;;;;;;4972079;28;20059;-69
2024/03/18 04:13:31;;;;;;;16.10;12.60;;;7.60;99.90;;;;;;4972728;28;20062;-67
2024/03/18 04:15:57;;;;;;;17.50;13.75;;;7.60;99.90;;;;;;4981127;28;20038;-68
2024/03/18 04:18:24;;;;;;;19.42;12.93;;;7.50;99.90;;;;;;4987756;28;20037;-68
2024/03/18 04:20:51;;;;;;;17.58;12.73;;;7.50;99.90;;;;;;4990181;28;20038;-69
2024/03/18 04:23:19;;;;;;;17.67;12.55;;;7.60;99.90;;;;;;4971537;28;20083;-69
2024/03/18 04:25:45;;;;;;;16.20;13.05;;;7.40;99.90;;;;;;4984761;28;20053;-69
2024/03/18 04:28:11;;;;;;;16.75;12.63;;;7.40;99.90;;;;;;4967565;28;20091;-69
2024/03/18 04:30:38;;;;;;;19.20;14.05;;;7.50;99.90;;;;;;4971260;28;20432;-69
2024/03/18 04:33:06;;;;;;;18.00;12.13;;;7.60;99.90;;;;;;4984086;28;20060;-68
2024/03/18 04:35:32;;;;;;;21.58;13.48;;;7.60;99.90;;;;;;4979557;28;20038;-68
2024/03/18 04:37:58;;;;;;;16.70;12.60;;;7.60;99.90;;;;;;4976130;28;20039;-69
2024/03/18 04:40:26;;;;;;;25.23;13.45;;;7.60;99.90;;;;;;4955784;28;20034;-69
2024/03/18 04:42:53;;;;;;;19.20;13.65;;;7.70;99.90;;;;;;4975132;28;20397;-68
2024/03/18 04:45:20;;;;;;;19.08;13.63;;;7.30;99.90;;;;;;4971430;28;20389;-69
2024/03/18 04:47:52;;;;;;;23.42;14.40;;;7.40;99.90;;;;;;4971369;28;20148;-69
2024/03/18 04:50:21;;;;;;;21.70;13.48;;;7.40;99.90;;;;;;4955564;28;20042;-70
2024/03/18 04:52:48;;;;;;;17.95;13.15;;;7.50;99.90;;;;;;4967670;28;20047;-69
2024/03/18 04:55:15;;;;;;;18.67;13.02;;;7.40;99.90;;;;;;4968104;28;20517;-69
2024/03/18 04:57:41;;;;;;;19.08;12.90;;;7.40;99.90;;;;;;4967902;28;20031;-66
2024/03/18 05:00:11;;;;;;;18.38;12.82;;;7.20;99.90;;;;;;4967788;28;20043;-70
2024/03/18 05:02:41;;;;;;;18.90;12.48;;;7.20;99.90;;;;;;4967897;28;20393;-68
2024/03/18 05:05:09;;;;;;;20.23;13.23;;;7.30;99.90;;;;;;4967803;28;20039;-69
2024/03/18 05:07:36;;;;;;;20.35;13.02;;;7.20;99.90;;;;;;4976052;28;20343;-69
2024/03/18 05:10:03;;;;;;;18.35;12.90;;;7.00;99.90;;;;;;5001665;28;20662;-69
2024/03/18 05:12:30;;;;;;;14.95;12.70;;;6.90;99.90;;;;;;4959665;28;20042;-69
2024/03/18 05:14:57;;;;;;;17.55;12.52;;;6.70;99.90;;;;;;4985142;28;20109;-68
2024/03/18 05:17:24;;;;;;;23.00;12.95;;;6.60;99.90;;;;;;4968059;28;20047;-70
2024/03/18 05:19:53;;;;;;;16.27;12.50;;;6.50;99.90;;;;;;4985731;28;20042;-69
2024/03/18 05:22:21;;;;;;;19.38;12.65;;;6.80;99.90;;;;;;4951911;28;20065;-68
2024/03/18 05:24:48;;;;;;;18.83;12.60;;;6.90;99.90;;;;;;4967490;28;20038;-69
2024/03/18 05:27:20;;;;;;;19.73;12.48;;;7.10;99.90;;;;;;4973839;28;20038;-68
2024/03/18 05:29:49;;;;;;;21.25;12.40;;;7.20;99.90;;;;;;4966498;28;20105;-67
2024/03/18 05:32:18;;;;;;;24.08;13.48;;;7.30;99.90;;;;;;4974192;28;20045;-70
2024/03/18 05:34:45;;;;;;;20.15;13.82;;;7.30;99.90;;;;;;4973959;28;20034;-67
2024/03/18 05:37:12;;;;;;;15.43;11.45;;;7.40;99.90;;;;;;4963010;28;20042;-69
2024/03/18 05:39:39;;;;;;;15.70;11.18;;;7.30;99.20;;;;;;4972427;28;20035;-67
2024/03/18 05:42:05;;;;;;;15.48;9.82;;;7.30;99.20;;;;;;4970420;28;20030;-67
2024/03/18 05:44:32;;;;;;;12.93;10.20;;;7.30;99.20;;;;;;4975942;28;20026;-69
2024/03/18 05:46:58;;;;;;;18.45;9.18;;;7.20;98.80;;;;;;4971906;28;20046;-69
2024/03/18 05:49:25;;;;;;;12.38;9.77;;;7.00;99.30;;;;;;4970490;28;20118;-69
2024/03/18 05:51:52;;;;;;;14.70;10.18;;;6.80;99.90;;;;;;4971020;28;20093;-69
2024/03/18 05:54:19;;;;;;;12.73;9.77;;;7.10;99.90;;;;;;4985837;28;20049;-69
2024/03/18 05:56:45;;;;;;;11.63;9.32;;;7.10;99.90;;;;;;4975539;28;20031;-68
2024/03/18 05:59:12;;;;;;;14.57;10.15;;;6.90;99.90;;;;;;4970243;28;20027;-69
2024/03/18 06:01:39;;;;;;;13.90;9.45;;;7.30;99.90;;;;;;4970107;28;20104;-68
2024/03/18 06:04:06;;;;;;;15.93;10.82;;;7.40;99.90;;;;;;4977459;28;20058;-69
2024/03/18 06:06:33;;;;;;;31.83;20.80;;;7.40;99.90;;;;;;4965920;28;20103;-68
2024/03/18 06:09:01;;;;;;;15.50;11.88;;;7.60;99.80;;;;;;4970880;28;20413;-69
2024/03/18 06:11:28;;;;;;;14.52;11.10;;;7.40;99.80;;;;;;4969809;28;20038;-68
2024/03/18 06:13:55;;;;;;;16.45;11.60;;;7.30;99.90;;;;;;4970121;28;20452;-68
2024/03/18 06:16:21;;;;;;;14.30;10.48;;;7.40;99.90;;;;;;4978708;28;20038;-67
2024/03/18 06:18:49;;;;;;;16.10;10.88;;;7.50;99.80;;;;;;4971404;28;20417;-68
2024/03/18 06:21:18;;;;;;;17.30;12.35;;;7.40;99.80;;;;;;4980086;28;20031;-67
2024/03/18 06:23:50;;;;;;;108.28;56.20;;;7.50;99.90;;;;;;4953957;28;20509;-69
2024/03/18 06:26:17;;;;;;;39.25;26.38;;;7.80;99.90;;;;;;4981098;28;20421;-69
2024/03/18 06:28:45;;;;;;;20.27;14.55;;;8.10;99.80;;;;;;4962872;28;20042;-70
2024/03/18 06:31:11;;;;;;;15.13;11.95;;;8.00;99.10;;;;;;4969915;28;20039;-68
2024/03/18 06:33:38;;;;;;;14.57;11.95;;;8.00;98.70;;;;;;4969633;28;20390;-67
2024/03/18 06:36:09;;;;;;;15.73;12.48;;;8.00;99.00;;;;;;4962329;28;20385;-68
2024/03/18 06:38:38;;;;;;;18.08;11.57;;;8.10;99.10;;;;;;4976529;28;20044;-69
2024/03/18 06:41:09;;;;;;;16.88;11.70;;;8.30;98.80;;;;;;4976211;28;20042;-69
2024/03/18 06:43:36;;;;;;;18.52;12.65;;;8.30;98.60;;;;;;4980965;28;20031;-69
2024/03/18 06:46:05;;;;;;;15.45;11.68;;;8.40;98.70;;;;;;4982613;28;20031;-68
2024/03/18 06:48:32;;;;;;;16.80;12.13;;;8.60;98.60;;;;;;4969614;28;20417;-69
2024/03/18 06:50:59;;;;;;;13.90;11.35;;;8.60;98.70;;;;;;4969514;28;20073;-68
2024/03/18 06:53:26;;;;;;;16.42;12.15;;;8.70;98.70;;;;;;4952916;28;20685;-69
2024/03/18 06:55:52;;;;;;;16.25;12.48;;;8.90;98.40;;;;;;4969727;28;20533;-70
2024/03/18 06:58:21;;;;;;;19.83;12.77;;;8.80;98.00;;;;;;4969732;28;20043;-67
2024/03/18 07:00:48;;;;;;;36.97;22.25;;;8.60;98.40;;;;;;4966027;28;20038;-69
2024/03/18 07:03:15;;;;;;;31.42;20.58;;;8.90;98.80;;;;;;4971738;28;20027;-70
2024/03/18 07:05:41;;;;;;;19.67;13.73;;;9.20;98.00;;;;;;4982268;28;20047;-70
2024/03/18 07:08:08;;;;;;;20.48;13.77;;;8.90;98.20;;;;;;4969389;28;20039;-68
2024/03/18 07:10:34;;;;;;;19.10;13.55;;;9.00;98.00;;;;;;4969274;28;20445;-69
2024/03/18 07:13:00;;;;;;;21.70;14.02;;;9.20;97.50;;;;;;4978981;28;20087;-69
2024/03/18 07:15:26;;;;;;;20.92;14.80;;;9.30;97.30;;;;;;4971037;28;20041;-68
2024/03/18 07:17:52;;;;;;;15.55;12.35;;;9.50;97.00;;;;;;4969425;28;20039;-68
2024/03/18 07:20:18;;;;;;;21.17;13.55;;;9.60;97.10;;;;;;4971303;28;20038;-71
2024/03/18 07:22:45;;;;;;;17.73;12.80;;;9.60;97.10;;;;;;4953273;28;20038;-69
2024/03/18 07:25:17;;;;;;;19.08;13.00;;;9.80;97.10;;;;;;5029446;28;20380;-69
2024/03/18 07:27:45;;;;;;;18.98;13.20;;;9.70;97.20;;;;;;4968471;28;20027;-69
2024/03/18 07:30:13;;;;;;;16.67;12.07;;;9.60;97.50;;;;;;4979629;28;20043;-71
2024/03/18 07:32:40;;;;;;;19.92;12.65;;;9.90;97.40;;;;;;4980466;28;20473;-69
2024/03/18 07:35:07;;;;;;;17.83;11.50;;;10.00;97.40;;;;;;4983147;28;20390;-68
2024/03/18 07:37:34;;;;;;;17.50;12.20;;;10.10;97.30;;;;;;4953278;28;20039;-69
2024/03/18 07:40:00;;;;;;;15.43;11.50;;;10.10;96.80;;;;;;4968643;28;20378;-69
2024/03/18 07:42:26;;;;;;;18.13;13.07;;;10.20;96.90;;;;;;4969059;28;20092;-68
2024/03/18 07:44:56;;;;;;;17.05;11.90;;;10.30;97.00;;;;;;4952577;28;20047;-68
2024/03/18 07:47:24;;;;;;;17.00;11.35;;;10.70;96.90;;;;;;4969147;28;20037;-70
2024/03/18 07:49:50;;;;;;;16.10;11.80;;;10.80;96.20;;;;;;4968507;28;20047;-67
2024/03/18 07:52:18;;;;;;;19.85;12.32;;;10.70;96.10;;;;;;4968592;28;20049;-70
2024/03/18 07:54:44;;;;;;;18.45;12.25;;;10.70;96.00;;;;;;4968982;28;20060;-69
2024/03/18 07:57:13;;;;;;;18.30;12.80;;;10.70;96.40;;;;;;4968337;28;20035;-70
2024/03/18 07:59:39;;;;;;;18.02;11.73;;;10.90;96.20;;;;;;4968957;28;20058;-69
2024/03/18 08:02:05;;;;;;;16.13;11.60;;;11.10;95.70;;;;;;4968218;28;20436;-72
2024/03/18 08:04:32;;;;;;;18.17;12.30;;;11.10;95.60;;;;;;4976316;28;20038;-68
2024/03/18 08:06:58;;;;;;;16.88;11.13;;;11.20;95.30;;;;;;4973050;28;20042;-69
2024/03/18 08:09:24;;;;;;;15.80;11.10;;;11.00;95.60;;;;;;4977592;28;20396;-71
2024/03/18 08:11:50;;;;;;;15.95;11.60;;;11.30;95.80;;;;;;4971806;28;20386;-70
2024/03/18 08:14:18;;;;;;;16.55;11.45;;;11.50;95.40;;;;;;4968897;28;20085;-69
2024/03/18 08:16:45;;;;;;;15.27;10.65;;;11.60;94.80;;;;;;4964362;28;20096;-71
2024/03/18 08:19:11;;;;;;;16.75;11.35;;;11.70;94.70;;;;;;4968440;28;20047;-68
2024/03/18 08:21:37;;;;;;;15.43;10.68;;;11.80;95.20;;;;;;4973376;28;20035;-70
2024/03/18 08:24:04;;;;;;;16.52;10.68;;;12.10;94.70;;;;;;4968134;28;20100;-71
2024/03/18 08:26:33;;;;;;;13.32;9.50;;;12.40;93.60;;;;;;4975730;28;20026;-70
2024/03/18 08:29:00;;;;;;;14.25;9.70;;;12.60;92.70;;;;;;4969583;28;20099;-69
2024/03/18 08:31:27;;;;;;;14.55;9.48;;;12.60;92.30;;;;;;4969361;28;20386;-70
2024/03/18 08:33:56;;;;;;;14.77;10.20;;;12.70;92.10;;;;;;4980138;28;20363;-71
2024/03/18 08:36:23;;;;;;;16.33;9.55;;;13.00;91.90;;;;;;4967991;28;20088;-69
2024/03/18 08:38:50;;;;;;;12.63;9.02;;;13.30;91.20;;;;;;4976991;28;20103;-69
2024/03/18 08:41:17;;;;;;;15.43;10.18;;;13.30;90.80;;;;;;4974117;28;20031;-70
2024/03/18 08:43:44;;;;;;;13.02;9.45;;;13.70;90.80;;;;;;4970145;28;20031;-70
2024/03/18 08:46:10;;;;;;;13.90;10.02;;;13.70;90.70;;;;;;4967844;28;20052;-71
2024/03/18 08:48:36;;;;;;;15.98;10.32;;;13.80;90.70;;;;;;4961912;28;20392;-70
2024/03/18 08:51:04;;;;;;;13.52;10.23;;;13.90;90.90;;;;;;4967710;28;20096;-69
2024/03/18 08:53:32;;;;;;;14.23;9.23;;;13.90;91.70;;;;;;4974953;28;20039;-70
2024/03/18 08:55:58;;;;;;;15.00;10.18;;;14.10;91.00;;;;;;4970581;28;20031;-69
2024/03/18 08:58:24;;;;;;;15.60;10.07;;;14.10;91.00;;;;;;4973418;28;20031;-70
2024/03/18 09:00:50;;;;;;;13.35;9.43;;;14.10;90.80;;;;;;4976531;28;20034;-69
2024/03/18 09:03:17;;;;;;;13.73;9.70;;;14.10;90.50;;;;;;4976145;28;20027;-70
2024/03/18 09:05:53;;;;;;;15.20;10.18;;;14.30;90.20;;;;;;4967461;28;20043;-69
2024/03/18 09:08:23;;;;;;;14.55;8.95;;;14.00;90.10;;;;;;4972304;28;20481;-68
2024/03/18 09:10:50;;;;;;;13.32;9.95;;;13.80;90.30;;;;;;4977230;28;20035;-69
2024/03/18 09:13:16;;;;;;;21.13;10.70;;;14.00;90.50;;;;;;4971714;28;20045;-69
2024/03/18 09:15:42;;;;;;;14.07;9.73;;;14.10;90.50;;;;;;4972986;28;20386;-68
2024/03/18 09:18:08;;;;;;;12.15;8.98;;;14.30;90.40;;;;;;4978880;28;20027;-69
2024/03/18 09:20:35;;;;;;;12.40;9.10;;;13.90;90.00;;;;;;4964088;28;20097;-69
2024/03/18 09:23:02;;;;;;;14.07;9.45;;;14.10;90.30;;;;;;4970311;28;20050;-71
2024/03/18 09:25:28;;;;;;;14.25;9.90;;;14.10;90.20;;;;;;4970692;28;20035;-69
2024/03/18 09:27:54;;;;;;;14.40;9.95;;;14.20;90.60;;;;;;4977985;28;20155;-71
2024/03/18 09:30:23;;;;;;;13.75;10.02;;;14.20;90.40;;;;;;4970814;28;20046;-69
2024/03/18 09:32:49;;;;;;;14.40;9.55;;;14.60;90.40;;;;;;4973810;28;20516;-69
2024/03/18 09:35:15;;;;;;;17.35;10.35;;;14.90;90.30;;;;;;4970929;28;20038;-69
2024/03/18 09:37:41;;;;;;;14.05;9.27;;;15.30;88.70;;;;;;4983464;28;20027;-69
2024/03/18 09:40:08;;;;;;;18.23;10.02;;;15.70;87.60;;;;;;4955221;28;20075;-69
2024/03/18 09:42:36;;;;;;;15.57;8.80;;;15.50;87.10;;;;;;4970477;28;20061;-69
2024/03/18 09:45:03;;;;;;;12.70;8.65;;;15.20;86.30;;;;;;4971192;28;20038;-68
2024/03/18 09:47:31;;;;;;;13.52;9.32;;;14.90;87.40;;;;;;4964870;28;20055;-68
2024/03/18 09:49:57;;;;;;;13.73;8.90;;;15.00;88.00;;;;;;4979915;28;20393;-68
2024/03/18 09:52:29;;;;;;;13.50;8.85;;;15.00;87.50;;;;;;4973601;28;20038;-70
2024/03/18 09:54:56;;;;;;;13.02;9.32;;;15.00;87.40;;;;;;4975710;28;20035;-68
2024/03/18 09:57:26;;;;;;;13.25;8.68;;;15.30;87.20;;;;;;4979178;28;20026;-70
2024/03/18 09:59:53;;;;;;;12.23;8.80;;;15.60;86.90;;;;;;4978706;28;20034;-68
2024/03/18 10:02:19;;;;;;;12.07;7.82;;;15.60;86.20;;;;;;4971681;28;20034;-70
2024/03/18 10:04:46;;;;;;;11.32;7.65;;;15.70;85.50;;;;;;4982187;28;20046;-69
2024/03/18 10:07:15;;;;;;;13.07;8.57;;;15.70;84.30;;;;;;4980192;28;20035;-70
2024/03/18 10:09:44;;;;;;;11.63;7.50;;;15.80;84.00;;;;;;4974696;28;20061;-69
2024/03/18 10:12:13;;;;;;;11.37;8.07;;;16.00;83.50;;;;;;4966936;28;20063;-69
2024/03/18 10:14:39;;;;;;;12.05;7.93;;;15.70;84.70;;;;;;4979941;28;20075;-69
2024/03/18 10:17:12;;;;;;;13.50;8.20;;;16.20;85.40;;;;;;4973984;28;20069;-70
2024/03/18 10:19:38;;;;;;;14.10;9.27;;;16.60;83.80;;;;;;4978109;28;20038;-69
2024/03/18 10:22:07;;;;;;;13.98;8.23;;;17.50;86.90;;;;;;4970971;28;20034;-70
2024/03/18 10:24:34;;;;;;;13.35;8.48;;;17.80;84.40;;;;;;4980503;28;20039;-68
2024/03/18 10:27:00;;;;;;;11.68;7.78;;;17.60;81.80;;;;;;4970648;28;20035;-70
2024/03/18 10:29:26;;;;;;;10.95;7.68;;;17.10;79.10;;;;;;4968545;28;20045;-70
2024/03/18 10:31:53;;;;;;;11.43;7.50;;;16.90;81.40;;;;;;4973462;28;20030;-69
2024/03/18 10:34:21;;;;;;;13.70;7.30;;;16.90;82.20;;;;;;4978262;28;20486;-70
2024/03/18 10:36:53;;;;;;;10.25;7.60;;;17.40;82.70;;;;;;4973149;28;20031;-71
2024/03/18 10:39:42;;;;;;;9.77;7.35;;;17.10;80.00;;;;;;4969007;28;20050;-70
2024/03/18 10:42:18;;;;;;;10.30;7.38;;;17.40;79.00;;;;;;4971456;28;20389;-69
2024/03/18 10:45:15;;;;;;;10.32;6.43;;;17.60;77.90;;;;;;4978161;28;20420;-68
2024/03/18 10:47:43;;;;;;;15.85;7.55;;;18.00;79.50;;;;;;4978672;28;20127;-70
2024/03/18 10:50:16;;;;;;;10.95;6.78;;;18.00;77.80;;;;;;4969819;28;20482;-68
2024/03/18 10:52:44;;;;;;;10.88;7.00;;;17.90;77.50;;;;;;4969540;28;20043;-71
2024/03/18 10:55:30;;;;;;;9.40;6.32;;;17.80;77.30;;;;;;4976382;28;20028;-70
2024/03/18 10:57:59;;;;;;;12.98;7.53;;;17.90;76.50;;;;;;4980093;28;20381;-69
2024/03/18 11:00:27;;;;;;;11.18;6.43;;;18.10;76.20;;;;;;4981383;28;20419;-69
2024/03/18 11:03:03;;;;;;;9.90;6.10;;;18.30;75.70;;;;;;4969239;28;20031;-69
2024/03/18 11:05:34;;;;;;;10.07;6.85;;;18.60;75.90;;;;;;4969424;28;20381;-68
2024/03/18 11:08:06;;;;;;;9.88;6.85;;;18.80;75.10;;;;;;4969435;28;20670;-70
2024/03/18 11:10:36;;;;;;;10.50;6.40;;;18.80;74.70;;;;;;4969886;28;20039;-69
2024/03/18 11:13:15;;;;;;;11.43;7.10;;;18.70;75.30;;;;;;4980860;28;20048;-69
2024/03/18 11:15:57;;;;;;;12.23;6.28;;;19.00;74.30;;;;;;4975331;28;20038;-70
2024/03/18 11:18:29;;;;;;;12.38;6.65;;;19.40;73.20;;;;;;4980226;28;20133;-69
2024/03/18 11:20:59;;;;;;;9.90;6.57;;;19.60;71.80;;;;;;4960099;28;20039;-68
2024/03/18 11:23:31;;;;;;;10.02;6.68;;;19.60;71.60;;;;;;4959669;28;20054;-69
2024/03/18 11:26:06;;;;;;;11.00;6.28;;;19.70;70.80;;;;;;4966386;28;20043;-68
2024/03/18 11:28:33;;;;;;;9.43;6.30;;;19.80;71.30;;;;;;4969413;28;20039;-69
2024/03/18 11:30:59;;;;;;;8.40;5.72;;;20.30;70.80;;;;;;4972563;28;20115;-69
2024/03/18 11:33:27;;;;;;;8.23;5.47;;;20.40;68.70;;;;;;4972654;28;20042;-69
2024/03/18 11:35:53;;;;;;;8.27;5.30;;;20.30;67.80;;;;;;4971636;28;20038;-69
2024/03/18 11:38:20;;;;;;;7.88;5.22;;;20.30;68.30;;;;;;4970627;28;20049;-69
2024/03/18 11:40:47;;;;;;;8.90;5.10;;;20.60;68.30;;;;;;4978601;28;20030;-69
2024/03/18 11:43:13;;;;;;;9.48;5.38;;;21.00;65.70;;;;;;4962180;28;20084;-68
2024/03/18 11:45:40;;;;;;;7.43;4.95;;;21.20;64.90;;;;;;4972739;28;20359;-69
2024/03/18 11:48:08;;;;;;;7.13;4.80;;;21.40;63.90;;;;;;4962971;28;20045;-69
2024/03/18 11:50:38;;;;;;;5.00;3.42;;;21.70;63.60;;;;;;4968893;28;20061;-70
2024/03/18 11:53:09;;;;;;;5.95;3.67;;;21.80;59.20;;;;;;4971728;28;20034;-70
2024/03/18 11:55:36;;;;;;;;;;;22.20;61.10;;;;;;4974906;28;20116;-68
2024/03/18 11:58:05;;;;;;;9.63;4.43;;;22.30;60.30;;;;;;4972176;28;20322;-69
2024/03/18 12:00:36;;;;;;;7.65;4.15;;;22.50;59.10;;;;;;4965540;28;20034;-71
2024/03/18 12:03:05;;;;;;;5.00;3.28;;;23.00;58.70;;;;;;4974872;28;20034;-69
2024/03/18 12:05:36;;;;;;;6.55;3.80;;;22.50;57.70;;;;;;4971446;28;20034;-67
2024/03/18 12:08:07;;;;;;;4.50;2.80;;;22.70;56.90;;;;;;4971669;28;20408;-69
2024/03/18 12:10:35;;;;;;;6.00;3.55;;;22.90;57.00;;;;;;4972042;28;20027;-69
2024/03/18 12:13:02;;;;;;;5.60;3.03;;;23.80;55.80;;;;;;4983124;28;20049;-69
2024/03/18 12:15:29;;;;;;;4.93;3.03;;;28.30;51.70;;;;;;4972766;28;20392;-69
2024/03/18 12:17:57;;;;;;;5.75;2.80;;;31.30;47.60;;;;;;4971920;28;20038;-68
2024/03/18 12:20:27;;;;;;;4.68;2.38;;;32.10;46.00;;;;;;4975528;28;20026;-70
2024/03/18 12:23:00;;;;;;;4.13;2.20;;;31.70;44.00;;;;;;4971165;28;20111;-70
2024/03/18 12:28:32;;;;;;;5.80;1.98;;;32.50;42.40;;;;;;4984105;28;20039;-69
2024/03/18 12:31:00;;;;;;;4.30;2.08;;;31.30;41.90;;;;;;4979078;28;20039;-68
2024/03/18 12:33:32;;;;;;;3.83;2.10;;;30.80;42.50;;;;;;4972655;28;20034;-68
2024/03/18 12:36:00;;;;;;;4.25;1.85;;;29.30;41.90;;;;;;4968183;28;20042;-70
2024/03/18 12:38:36;;;;;;;3.97;2.10;;;29.70;42.80;;;;;;4971882;28;20034;-69
2024/03/18 12:41:09;;;;;;;5.03;2.20;;;29.60;43.80;;;;;;4982022;28;20048;-68
2024/03/18 12:43:35;;;;;;;4.32;2.30;;;32.50;43.10;;;;;;4971950;28;20104;-72